Time;durP1;ratioP1;P1;durP2;ratioP2;P2;SDS_P1;SDS_P2;PMS_P1;PMS_P2;Temp;Humidity;BMP_temperature;BMP_pressure;BME280_temperature;BME280_humidity;BME280_pressure;Samples;Min_cycle;Max_cycle;Signal;HPM_P1;HPM_P2
2023/03/15 00:01:02;;;;;;;0.30;0.20;;;;;;;1.13;71.92;99111.78;4970999;28;20404;-69
2023/03/15 00:03:30;;;;;;;0.85;0.20;;;;;;;1.11;71.54;99110.94;4986423;28;20084;-69
2023/03/15 00:05:57;;;;;;;0.40;0.20;;;;;;;1.12;72.26;99124.66;4982560;28;20050;-69
2023/03/15 00:08:24;;;;;;;0.40;0.20;;;;;;;1.10;71.94;99116.94;4987075;28;20073;-69
2023/03/15 00:10:51;;;;;;;0.80;0.20;;;;;;;1.09;72.27;99122.94;4983814;28;20054;-69
2023/03/15 00:13:18;;;;;;;0.22;0.10;;;;;;;1.07;71.73;99126.41;4990835;28;20042;-69
2023/03/15 00:15:46;;;;;;;0.40;0.10;;;;;;;1.06;72.64;99134.97;4978711;28;20042;-69
2023/03/15 00:18:13;;;;;;;0.30;0.20;;;;;;;1.05;72.30;99139.28;4982041;28;20053;-69
2023/03/15 00:20:42;;;;;;;0.20;0.17;;;;;;;0.84;72.45;99109.41;4986737;28;20042;-69
2023/03/15 00:23:09;;;;;;;2.05;0.10;;;;;;;1.02;71.92;99139.28;4984875;28;20058;-69
2023/03/15 00:25:36;;;;;;;0.35;0.10;;;;;;;1.00;72.00;99146.16;4986695;28;20137;-69
2023/03/15 00:28:03;;;;;;;4.15;0.17;;;;;;;0.98;72.05;99145.31;4978808;28;20039;-69
2023/03/15 00:30:30;;;;;;;0.10;0.10;;;;;;;0.97;71.97;99155.59;4980045;28;20046;-69
2023/03/15 00:32:57;;;;;;;0.20;0.10;;;;;;;0.96;72.73;99159.03;4989243;28;20407;-69
2023/03/15 00:35:24;;;;;;;0.10;0.10;;;;;;;0.93;72.05;99169.34;4976835;28;20506;-69
2023/03/15 00:37:56;;;;;;;0.30;0.10;;;;;;;0.93;72.17;99171.91;4989112;28;20050;-69
2023/03/15 00:40:23;;;;;;;0.03;0.00;;;;;;;0.85;72.63;99166.78;4984057;28;20062;-69
2023/03/15 00:42:51;;;;;;;0.13;0.10;;;;;;;0.90;72.28;99172.78;4981248;28;20059;-69
2023/03/15 00:45:18;;;;;;;0.05;0.05;;;;;;;0.89;72.26;99184.78;4986248;28;20066;-69
2023/03/15 00:47:45;;;;;;;0.10;0.10;;;;;;;0.88;71.87;99179.63;4974155;28;20487;-69
2023/03/15 00:50:12;;;;;;;0.30;0.10;;;;;;;0.87;71.90;99186.50;4985990;28;20066;-69
2023/03/15 00:52:40;;;;;;;1.40;0.20;;;;;;;0.81;72.20;99185.69;4971938;28;20054;-69
2023/03/15 00:55:13;;;;;;;0.52;0.10;;;;;;;0.85;72.32;99202.78;4987633;28;20149;-69
2023/03/15 00:57:40;;;;;;;0.13;0.10;;;;;;;0.84;71.83;99198.50;4979225;28;20429;-69
2023/03/15 01:00:10;;;;;;;0.43;0.10;;;;;;;0.81;71.72;99208.81;4982516;28;20053;-69
2023/03/15 01:02:37;;;;;;;0.03;0.03;;;;;;;0.78;72.07;99224.25;4985944;28;20414;-69
2023/03/15 01:05:05;;;;;;;0.15;0.05;;;;;;;0.77;72.30;99232.78;4980125;28;20042;-69
2023/03/15 01:07:32;;;;;;;0.38;0.10;;;;;;;0.74;71.69;99219.97;4976937;28;20047;-69
2023/03/15 01:10:00;;;;;;;0.13;0.10;;;;;;;0.74;71.78;99235.38;4987069;28;20042;-69
2023/03/15 01:12:29;;;;;;;0.65;0.10;;;;;;;0.70;71.83;99231.13;4981705;28;20061;-69
2023/03/15 01:14:56;;;;;;;0.17;0.10;;;;;;;0.70;72.05;99233.69;4980807;28;20047;-69
2023/03/15 01:17:23;;;;;;;0.13;0.10;;;;;;;0.68;71.99;99243.97;4983227;28;20047;-69
2023/03/15 01:19:50;;;;;;;0.25;0.10;;;;;;;0.63;71.91;99238.84;4980659;28;20050;-69
2023/03/15 01:22:17;;;;;;;1.13;0.10;;;;;;;0.64;71.19;99245.69;4978416;28;20574;-69
2023/03/15 01:24:44;;;;;;;0.25;0.13;;;;;;;0.63;71.84;99248.28;4981554;28;20084;-69
2023/03/15 01:27:11;;;;;;;0.43;0.10;;;;;;;0.61;71.17;99252.56;4984872;28;20039;-69
2023/03/15 01:29:40;;;;;;;0.15;0.10;;;;;;;0.59;72.04;99254.28;4982878;28;20406;-69
2023/03/15 01:32:07;;;;;;;0.10;0.00;;;;;;;0.56;71.92;99265.41;4972767;28;20502;-69
2023/03/15 01:34:34;;;;;;;0.05;0.00;;;;;;;0.54;72.03;99269.72;4980998;28;20056;-69
2023/03/15 01:37:02;;;;;;;1.65;0.10;;;;;;;0.52;71.45;99268.88;4982745;28;20050;-69
2023/03/15 01:39:29;;;;;;;0.20;0.10;;;;;;;0.48;71.51;99264.56;4978326;28;20050;-69
2023/03/15 01:41:56;;;;;;;0.10;0.10;;;;;;;0.45;71.69;99270.56;4980106;28;20125;-69
2023/03/15 01:44:23;;;;;;;0.43;0.28;;;;;;;0.43;71.28;99282.56;4981156;28;20503;-69
2023/03/15 01:46:51;;;;;;;1.70;0.10;;;;;;;0.40;71.76;99277.44;4973900;28;20046;-69
2023/03/15 01:49:23;;;;;;;0.90;0.10;;;;;;;0.37;71.17;99286.84;4986748;28;20043;-69
2023/03/15 01:51:56;;;;;;;7.05;0.17;;;;;;;0.36;71.36;99285.16;4984583;28;20065;-69
2023/03/15 01:54:28;;;;;;;0.13;0.10;;;;;;;0.34;71.16;99292.00;4982368;28;20051;-69
2023/03/15 01:57:01;;;;;;;0.30;0.10;;;;;;;0.30;71.28;99291.16;4984530;28;20046;-69
2023/03/15 01:59:32;;;;;;;0.03;0.00;;;;;;;0.29;71.34;99296.31;4972701;28;20054;-69
2023/03/15 02:02:01;;;;;;;0.75;0.10;;;;;;;0.25;71.97;99292.00;4983016;28;20046;-69
2023/03/15 02:04:33;;;;;;;0.10;0.08;;;;;;;0.22;70.98;99292.84;4979026;28;20407;-69
2023/03/15 02:07:03;;;;;;;0.80;0.03;;;;;;;0.20;70.96;99305.72;4978645;28;20471;-69
2023/03/15 02:09:41;;;;;;;0.93;0.10;;;;;;;0.08;71.66;99279.16;4979193;28;20047;-69
2023/03/15 02:12:09;;;;;;;1.00;0.10;;;;;;;0.13;71.24;99304.00;4987087;28;20523;-69
2023/03/15 02:14:36;;;;;;;0.10;0.08;;;;;;;0.13;71.55;99321.13;4979480;28;20840;-69
2023/03/15 02:17:05;;;;;;;0.10;0.10;;;;;;;0.10;71.18;99323.69;4985713;28;20423;-69
2023/03/15 02:19:44;;;;;;;0.57;0.10;;;;;;;0.09;71.02;99319.41;4975078;28;20057;-69
2023/03/15 02:22:23;;;;;;;0.13;0.10;;;;;;;0.05;70.86;99326.25;4981137;28;20046;-69
2023/03/15 02:24:58;;;;;;;1.55;0.10;;;;;;;0.03;71.35;99333.09;4979648;28;20050;-69
2023/03/15 02:27:30;;;;;;;0.10;0.10;;;;;;;-0.01;71.17;99331.38;4978168;28;20754;-69
2023/03/15 02:29:58;;;;;;;0.55;0.10;;;;;;;-0.01;71.64;99344.22;4980499;28;20055;-69
2023/03/15 02:32:25;;;;;;;1.23;0.10;;;;;;;-0.05;71.30;99348.50;4977920;28;20061;-69
2023/03/15 02:34:52;;;;;;;0.30;0.05;;;;;;;-0.08;71.39;99348.47;4980261;28;20054;-69
2023/03/15 02:37:18;;;;;;;1.40;0.10;;;;;;;-0.10;71.24;99357.88;4984536;28;20054;-69
2023/03/15 02:39:45;;;;;;;1.35;0.08;;;;;;;-0.12;71.10;99358.72;4976976;28;20366;-69
2023/03/15 02:42:12;;;;;;;0.00;0.00;;;;;;;-0.15;71.54;99369.00;4987196;28;20491;-69
2023/03/15 02:44:44;;;;;;;0.10;0.10;;;;;;;-0.17;70.97;99371.56;4980722;28;20578;-69
2023/03/15 02:47:17;;;;;;;0.70;0.10;;;;;;;-0.19;70.88;99380.13;4989881;28;20418;-69
2023/03/15 02:49:49;;;;;;;0.10;0.10;;;;;;;-0.22;70.91;99383.53;4977639;28;20457;-69
2023/03/15 02:52:16;;;;;;;1.08;0.10;;;;;;;-0.25;70.84;99389.50;4983614;28;20074;-69
2023/03/15 02:54:43;;;;;;;1.45;0.00;;;;;;;-0.29;71.08;99392.91;4981071;28;20052;-69
2023/03/15 02:57:10;;;;;;;0.15;0.10;;;;;;;-0.28;71.48;99392.06;4986440;28;20042;-69
2023/03/15 02:59:37;;;;;;;0.03;0.00;;;;;;;-0.30;71.64;99393.75;4984689;28;20145;-69
2023/03/15 03:02:06;;;;;;;0.38;0.10;;;;;;;-0.31;71.00;99391.22;4975062;28;20495;-69
2023/03/15 03:04:33;;;;;;;0.20;0.10;;;;;;;-0.33;71.21;99396.31;4972758;28;20046;-69
2023/03/15 03:07:00;;;;;;;0.13;0.00;;;;;;;-0.34;71.74;99406.56;4980164;28;20054;-69
2023/03/15 03:09:27;;;;;;;1.38;0.10;;;;;;;-0.37;70.68;99404.88;4978527;28;20525;-69
2023/03/15 03:11:54;;;;;;;0.20;0.05;;;;;;;-0.39;71.22;99409.13;4979945;28;20050;-69
2023/03/15 03:14:22;;;;;;;2.22;0.00;;;;;;;-0.41;71.28;99413.38;4987505;28;20050;-69
2023/03/15 03:16:50;;;;;;;1.67;0.10;;;;;;;-0.43;71.63;99417.66;4982298;28;20053;-69
2023/03/15 03:19:18;;;;;;;0.43;0.03;;;;;;;-0.44;71.39;99418.50;4982990;28;20097;-69
2023/03/15 03:21:45;;;;;;;0.40;0.10;;;;;;;-0.46;70.92;99420.19;4984597;28;20585;-69
2023/03/15 03:24:14;;;;;;;0.30;0.08;;;;;;;-0.49;71.41;99423.59;4983461;28;20062;-69
2023/03/15 03:26:44;;;;;;;0.00;0.00;;;;;;;-0.52;70.81;99426.16;4985785;28;20574;-69
2023/03/15 03:29:15;;;;;;;0.55;0.00;;;;;;;-0.54;71.14;99427.88;4987072;28;20050;-69
2023/03/15 03:31:42;;;;;;;0.00;0.00;;;;;;;-0.56;71.53;99439.00;4989928;28;20057;-69
2023/03/15 03:34:11;;;;;;;0.60;0.00;;;;;;;-0.58;71.26;99440.69;4986063;28;20065;-69
2023/03/15 03:36:39;;;;;;;0.30;0.00;;;;;;;-0.61;70.89;99444.06;4988090;28;20046;-69
2023/03/15 03:39:06;;;;;;;0.30;0.10;;;;;;;-0.64;71.23;99456.03;4989190;28;20058;-71
2023/03/15 03:41:33;;;;;;;1.08;0.10;;;;;;;-0.65;70.86;99459.47;4987834;28;20051;-71
2023/03/15 03:44:00;;;;;;;0.10;0.00;;;;;;;-0.68;71.14;99456.03;4987404;28;20046;-71
2023/03/15 03:46:27;;;;;;;0.13;0.00;;;;;;;-0.70;70.92;99460.28;4984668;28;20678;-72
2023/03/15 03:48:54;;;;;;;0.10;0.10;;;;;;;-0.72;71.33;99459.41;4985525;28;20050;-71
2023/03/15 03:51:21;;;;;;;1.27;0.00;;;;;;;-0.73;71.49;99472.22;4986687;28;20061;-71
2023/03/15 03:53:49;;;;;;;0.10;0.00;;;;;;;-0.75;71.46;99477.34;4981549;28;20038;-71
2023/03/15 03:56:16;;;;;;;0.10;0.00;;;;;;;-0.75;71.03;99484.16;4989174;28;20883;-72
2023/03/15 03:58:43;;;;;;;0.63;0.00;;;;;;;-0.79;70.65;99475.59;4988519;28;20054;-71
2023/03/15 04:01:10;;;;;;;0.25;0.00;;;;;;;-0.89;70.72;99465.28;4990801;28;20047;-71
2023/03/15 04:03:37;;;;;;;0.93;0.10;;;;;;;-0.84;70.74;99486.69;4990980;28;20053;-71
2023/03/15 04:06:05;;;;;;;0.10;0.00;;;;;;;-0.85;70.91;99490.97;4990799;28;20062;-71
2023/03/15 04:08:32;;;;;;;0.13;0.00;;;;;;;-0.95;70.81;99477.19;4989032;28;20042;-72
2023/03/15 04:11:02;;;;;;;0.00;0.00;;;;;;;-0.92;70.87;99491.75;4990814;28;20132;-71
2023/03/15 04:13:30;;;;;;;1.05;0.10;;;;;;;-0.91;70.95;99498.59;4990952;28;20050;-72
2023/03/15 04:15:57;;;;;;;0.10;0.00;;;;;;;-0.93;70.83;99502.84;4986854;28;20077;-72
2023/03/15 04:18:24;;;;;;;0.10;0.10;;;;;;;-0.97;71.07;99506.22;4991717;28;20046;-72
2023/03/15 04:20:53;;;;;;;0.00;0.00;;;;;;;-0.97;71.09;99509.69;4991136;28;20108;-71
2023/03/15 04:23:21;;;;;;;2.13;0.30;;;;;;;-1.00;70.74;99516.47;4988975;28;20065;-71
2023/03/15 04:25:49;;;;;;;0.80;0.10;;;;;;;-1.02;71.07;99516.47;4988839;28;20057;-72
2023/03/15 04:28:18;;;;;;;0.75;0.10;;;;;;;-1.03;71.33;99516.44;4990848;28;20046;-71
2023/03/15 04:30:48;;;;;;;0.50;0.10;;;;;;;-1.04;71.37;99512.16;4986774;28;20065;-72
2023/03/15 04:33:15;;;;;;;0.32;0.08;;;;;;;-1.06;71.28;99524.94;4987983;28;20065;-72
2023/03/15 04:35:42;;;;;;;0.43;0.10;;;;;;;-1.07;71.33;99513.00;4986792;28;20050;-72
2023/03/15 04:38:09;;;;;;;0.35;0.10;;;;;;;-1.10;71.14;99512.13;4991615;28;20399;-71
2023/03/15 04:40:36;;;;;;;1.20;0.03;;;;;;;-1.10;71.08;99520.66;4987392;28;20048;-72
2023/03/15 04:43:05;;;;;;;2.75;0.10;;;;;;;-1.14;71.18;99517.22;4989707;28;20050;-72
2023/03/15 04:45:33;;;;;;;0.10;0.00;;;;;;;-1.11;70.85;99524.09;4989516;28;20058;-71
2023/03/15 04:48:01;;;;;;;0.17;0.10;;;;;;;-1.14;71.11;99524.91;4984937;28;20402;-71
2023/03/15 04:50:30;;;;;;;0.10;0.00;;;;;;;-1.20;70.96;99514.59;4986214;28;20042;-71
2023/03/15 04:52:58;;;;;;;0.57;0.00;;;;;;;-1.16;71.04;99529.16;4988112;28;20055;-71
2023/03/15 04:55:25;;;;;;;0.00;0.00;;;;;;;-1.20;70.65;99527.41;4988197;28;20050;-71
2023/03/15 04:57:52;;;;;;;0.80;0.03;;;;;;;-1.20;71.04;99531.66;4988229;28;20062;-71
2023/03/15 05:00:20;;;;;;;0.00;0.00;;;;;;;-1.21;71.57;99533.38;4989956;28;20057;-72
2023/03/15 05:02:53;;;;;;;0.20;0.10;;;;;;;-1.23;70.92;99539.31;4986870;28;20045;-71
2023/03/15 05:05:21;;;;;;;0.43;0.10;;;;;;;-1.24;71.31;99541.03;4986243;28;20082;-72
2023/03/15 05:07:47;;;;;;;0.20;0.00;;;;;;;-1.25;71.33;99548.69;4987597;28;20053;-71
2023/03/15 05:10:15;;;;;;;0.20;0.10;;;;;;;-1.28;71.30;99549.56;4987219;28;20050;-71
2023/03/15 05:12:41;;;;;;;0.63;0.10;;;;;;;-1.29;71.22;99555.50;4987628;28;20043;-71
2023/03/15 05:15:10;;;;;;;0.13;0.10;;;;;;;-1.31;71.37;99564.91;4989461;28;20059;-71
2023/03/15 05:17:36;;;;;;;0.75;0.10;;;;;;;-1.34;71.43;99564.84;4986400;28;20943;-72
2023/03/15 05:20:10;;;;;;;1.75;0.10;;;;;;;-1.34;71.26;99567.41;4986932;28;20047;-72
2023/03/15 05:22:37;;;;;;;0.63;0.10;;;;;;;-1.34;71.07;99564.84;4988156;28;20109;-72
2023/03/15 05:25:04;;;;;;;1.27;0.10;;;;;;;-1.36;70.92;99574.22;4990150;28;20061;-71
2023/03/15 05:27:32;;;;;;;0.35;0.10;;;;;;;-1.38;71.17;99584.44;4986337;28;20585;-72
2023/03/15 05:30:01;;;;;;;0.38;0.10;;;;;;;-1.38;70.86;99581.88;4988999;28;20038;-71
2023/03/15 05:32:28;;;;;;;0.20;0.10;;;;;;;-1.39;71.34;99587.84;4983979;28;20050;-71
2023/03/15 05:34:55;;;;;;;1.45;0.10;;;;;;;-1.40;71.19;99592.94;4986607;28;20046;-72
2023/03/15 05:37:23;;;;;;;0.20;0.10;;;;;;;-1.42;71.23;99598.06;4984907;28;20055;-72
2023/03/15 05:39:50;;;;;;;0.98;0.10;;;;;;;-1.46;71.15;99591.19;4987969;28;20047;-71
2023/03/15 05:42:24;;;;;;;0.45;0.10;;;;;;;-1.43;70.49;99600.59;4987410;28;20565;-72
2023/03/15 05:44:51;;;;;;;2.67;0.95;;;;;;;-1.43;71.04;99605.72;4984807;28;20065;-72
2023/03/15 05:47:17;;;;;;;0.50;0.15;;;;;;;-1.44;71.10;99601.47;4986247;28;20042;-72
2023/03/15 05:49:45;;;;;;;2.35;0.10;;;;;;;-1.45;71.42;99613.41;4989060;28;20407;-71
2023/03/15 05:52:12;;;;;;;0.40;0.10;;;;;;;-1.50;71.37;99614.19;4985426;28;20145;-71
2023/03/15 05:54:40;;;;;;;0.10;0.10;;;;;;;-1.47;71.50;99624.47;4986024;28;20046;-72
2023/03/15 05:57:07;;;;;;;0.50;0.10;;;;;;;-1.46;71.40;99626.19;4987814;28;20050;-72
2023/03/15 05:59:34;;;;;;;0.35;0.10;;;;;;;-1.54;71.23;99618.41;4986836;28;20046;-71
2023/03/15 06:02:01;;;;;;;0.28;0.10;;;;;;;-1.47;71.51;99627.91;4984521;28;20053;-72
2023/03/15 06:04:28;;;;;;;0.10;0.05;;;;;;;-1.46;71.33;99646.69;4985126;28;20397;-71
2023/03/15 06:06:55;;;;;;;0.25;0.10;;;;;;;-1.45;71.23;99644.16;4988195;28;20699;-71
2023/03/15 06:09:21;;;;;;;0.20;0.10;;;;;;;-1.46;71.43;99651.78;4984546;28;20042;-71
2023/03/15 06:11:50;;;;;;;0.73;0.10;;;;;;;-1.45;71.50;99654.41;4986602;28;20057;-71
2023/03/15 06:14:17;;;;;;;0.32;0.00;;;;;;;-1.45;71.30;99653.50;4986200;28;20085;-71
2023/03/15 06:16:43;;;;;;;0.10;0.10;;;;;;;-1.46;71.22;99652.66;4983260;28;20050;-71
2023/03/15 06:19:10;;;;;;;1.00;0.15;;;;;;;-1.44;71.75;99660.38;4986752;28;20050;-71
2023/03/15 06:21:37;;;;;;;0.05;0.00;;;;;;;-1.42;71.95;99669.78;4984535;28;20061;-71
2023/03/15 06:24:05;;;;;;;1.00;0.10;;;;;;;-1.41;71.63;99676.63;4986024;28;20471;-71
2023/03/15 06:26:32;;;;;;;1.60;0.10;;;;;;;-1.40;71.84;99672.34;4986168;28;20046;-71
2023/03/15 06:29:00;;;;;;;0.10;0.10;;;;;;;-1.40;71.69;99667.22;4980406;28;20060;-71
2023/03/15 06:31:27;;;;;;;2.00;0.20;;;;;;;-1.40;72.21;99674.91;4985170;28;20557;-71
2023/03/15 06:33:54;;;;;;;0.35;0.13;;;;;;;-1.37;71.60;99677.50;4985337;28;20417;-71
2023/03/15 06:36:21;;;;;;;0.20;0.10;;;;;;;-1.37;71.99;99675.84;4986221;28;20051;-71
2023/03/15 06:38:48;;;;;;;0.10;0.10;;;;;;;-1.32;71.81;99683.56;4985759;28;20061;-71
2023/03/15 06:41:15;;;;;;;0.10;0.10;;;;;;;-1.31;72.15;99686.97;4986506;28;20043;-71
2023/03/15 06:43:42;;;;;;;1.15;0.10;;;;;;;-1.29;71.72;99680.19;4987107;28;20132;-71
2023/03/15 06:46:10;;;;;;;0.17;0.10;;;;;;;-1.27;72.15;99684.47;4989662;28;20046;-71
2023/03/15 06:48:37;;;;;;;1.17;0.10;;;;;;;-1.25;72.16;99692.16;4987213;28;20042;-71
2023/03/15 06:51:05;;;;;;;1.02;0.20;;;;;;;-1.23;71.93;99693.06;4984938;28;20499;-71
2023/03/15 06:53:32;;;;;;;2.25;0.20;;;;;;;-1.20;72.15;99700.78;4979184;28;20054;-71
2023/03/15 06:55:59;;;;;;;2.17;0.30;;;;;;;-1.18;72.49;99706.78;4987073;28;20042;-72
2023/03/15 06:58:25;;;;;;;4.68;0.30;;;;;;;-1.15;71.86;99705.13;4986220;28;20511;-71
2023/03/15 07:00:52;;;;;;;0.50;0.10;;;;;;;-1.13;72.29;99708.56;4984717;28;20050;-71
2023/03/15 07:03:22;;;;;;;1.90;0.10;;;;;;;-1.10;71.86;99714.56;4984208;28;20529;-73
2023/03/15 07:05:51;;;;;;;1.58;0.10;;;;;;;-1.09;72.14;99716.28;4986161;28;20051;-72
2023/03/15 07:08:18;;;;;;;0.57;0.17;;;;;;;-1.07;72.32;99724.84;4987599;28;20045;-73
2023/03/15 07:10:45;;;;;;;1.15;0.20;;;;;;;-1.02;72.39;99713.81;4983203;28;20049;-73
2023/03/15 07:13:12;;;;;;;2.33;0.20;;;;;;;-1.00;72.13;99718.94;4988584;28;20470;-72
2023/03/15 07:15:39;;;;;;;0.80;0.20;;;;;;;-0.95;72.33;99727.56;4982769;28;20418;-72
2023/03/15 07:18:06;;;;;;;2.95;0.20;;;;;;;-0.92;72.06;99722.47;4986309;28;20054;-71
2023/03/15 07:20:34;;;;;;;0.40;0.20;;;;;;;-0.90;72.39;99715.66;4986440;28;20058;-71
2023/03/15 07:23:02;;;;;;;1.40;0.20;;;;;;;-0.85;72.39;99724.25;4985594;28;20046;-71
2023/03/15 07:25:28;;;;;;;1.00;0.10;;;;;;;-0.80;72.18;99726.84;4983740;28;20069;-71
2023/03/15 07:27:55;;;;;;;1.17;0.20;;;;;;;-0.79;72.30;99719.19;4983052;28;20049;-72
2023/03/15 07:30:22;;;;;;;0.75;0.20;;;;;;;-0.71;72.62;99725.25;4983932;28;20525;-71
2023/03/15 07:32:49;;;;;;;0.73;0.10;;;;;;;-0.66;72.09;99730.41;4983381;28;20062;-71
2023/03/15 07:35:17;;;;;;;0.17;0.10;;;;;;;-0.61;72.05;99733.03;4982656;28;20053;-71
2023/03/15 07:37:45;;;;;;;3.00;0.10;;;;;;;-0.56;72.14;99727.13;4982089;28;20050;-71
2023/03/15 07:40:13;;;;;;;0.90;0.10;;;;;;;-0.50;72.32;99721.19;4984105;28;20133;-71
2023/03/15 07:42:40;;;;;;;1.33;0.10;;;;;;;-0.40;72.54;99734.94;4981655;28;20085;-71
2023/03/15 07:45:08;;;;;;;0.35;0.10;;;;;;;-0.33;71.83;99740.16;4982414;28;20074;-71
2023/03/15 07:47:36;;;;;;;0.68;0.10;;;;;;;-0.25;72.55;99741.09;4985931;28;20471;-71
2023/03/15 07:50:03;;;;;;;0.40;0.10;;;;;;;-0.18;72.00;99733.44;4980153;28;20562;-71
2023/03/15 07:52:30;;;;;;;2.47;0.15;;;;;;;-0.08;71.89;99732.66;4984470;28;20062;-70
2023/03/15 07:54:59;;;;;;;0.30;0.10;;;;;;;0.01;72.44;99742.16;4983835;28;20077;-71
2023/03/15 07:57:25;;;;;;;4.80;0.10;;;;;;;-0.10;72.81;99711.25;4982664;28;20057;-71
2023/03/15 07:59:52;;;;;;;1.38;1.02;;;;;;;0.19;72.19;99745.69;4984642;28;20045;-71
2023/03/15 08:02:19;;;;;;;1.00;0.10;;;;;;;0.30;71.85;99747.47;4981143;28;20050;-71
2023/03/15 08:04:49;;;;;;;3.20;0.20;;;;;;;0.38;72.25;99751.81;4982341;28;20274;-70
2023/03/15 08:07:16;;;;;;;0.82;0.10;;;;;;;0.50;71.72;99751.03;4984494;28;20628;-71
2023/03/15 08:09:43;;;;;;;2.67;0.75;;;;;;;0.62;72.42;99763.94;4984924;28;20411;-71
2023/03/15 08:12:12;;;;;;;1.33;0.30;;;;;;;0.71;72.46;99759.69;4984004;28;20558;-70
2023/03/15 08:14:39;;;;;;;1.55;0.20;;;;;;;0.82;71.65;99760.63;4981879;28;20518;-71
2023/03/15 08:17:06;;;;;;;0.70;0.10;;;;;;;0.93;71.44;99761.53;4986271;28;20049;-71
2023/03/15 08:19:32;;;;;;;8.70;0.45;;;;;;;1.01;71.42;99759.84;4984119;28;20069;-71
2023/03/15 08:21:59;;;;;;;0.32;0.20;;;;;;;1.09;70.89;99760.72;4984141;28;20046;-71
2023/03/15 08:24:26;;;;;;;1.00;0.40;;;;;;;1.20;71.31;99768.50;4986508;28;20069;-72
2023/03/15 08:26:53;;;;;;;1.08;0.28;;;;;;;1.28;70.89;99771.97;4990833;28;20092;-70
2023/03/15 08:29:21;;;;;;;2.65;0.10;;;;;;;1.39;70.30;99773.69;4988255;28;20057;-70
2023/03/15 08:31:48;;;;;;;1.92;0.10;;;;;;;1.47;70.75;99772.00;4986971;28;20050;-70
2023/03/15 08:34:16;;;;;;;1.98;0.20;;;;;;;1.56;70.28;99777.16;4986982;28;20038;-70
2023/03/15 08:36:42;;;;;;;0.20;0.10;;;;;;;1.64;70.42;99777.19;4988054;28;20054;-70
2023/03/15 08:39:10;;;;;;;0.30;0.25;;;;;;;1.67;70.55;99772.03;4986752;28;20055;-70
2023/03/15 08:41:37;;;;;;;2.70;0.20;;;;;;;1.79;70.04;99782.34;4987093;28;20046;-70
2023/03/15 08:44:04;;;;;;;0.28;0.10;;;;;;;1.88;70.38;99784.94;4987960;28;20046;-70
2023/03/15 08:46:32;;;;;;;1.67;0.20;;;;;;;1.96;69.75;99788.38;4988855;28;20109;-70
2023/03/15 08:49:00;;;;;;;0.95;0.10;;;;;;;2.04;70.15;99801.25;4986528;28;20046;-70
2023/03/15 08:51:28;;;;;;;2.55;0.10;;;;;;;2.11;69.67;99805.56;4988419;28;20046;-70
2023/03/15 08:53:54;;;;;;;4.65;0.15;;;;;;;2.17;69.94;99807.28;4988380;28;20054;-70
2023/03/15 08:56:21;;;;;;;1.85;0.10;;;;;;;2.25;69.90;99813.28;4989464;28;20129;-70
2023/03/15 08:58:49;;;;;;;1.25;0.30;;;;;;;2.31;69.03;99820.16;4990963;28;20046;-70
2023/03/15 09:01:15;;;;;;;3.13;0.17;;;;;;;2.35;69.17;99825.28;4990311;28;20451;-70
2023/03/15 09:03:44;;;;;;;0.68;0.10;;;;;;;2.40;68.60;99818.44;4989241;28;20415;-70
2023/03/15 09:06:10;;;;;;;0.22;0.10;;;;;;;2.44;68.82;99829.59;4989003;28;20046;-70
2023/03/15 09:08:37;;;;;;;0.10;0.10;;;;;;;2.50;68.26;99833.88;4989057;28;20434;-69
2023/03/15 09:11:04;;;;;;;0.35;0.10;;;;;;;2.53;67.75;99828.72;4987251;28;20043;-70
2023/03/15 09:13:31;;;;;;;0.77;0.10;;;;;;;2.54;67.69;99826.16;4988307;28;20058;-70
2023/03/15 09:15:58;;;;;;;0.57;0.13;;;;;;;2.53;67.51;99813.25;4989035;28;20055;-70
2023/03/15 09:18:25;;;;;;;0.45;0.10;;;;;;;2.61;67.40;99827.00;4989112;28;20050;-70
2023/03/15 09:20:53;;;;;;;1.65;0.10;;;;;;;2.66;66.84;99838.16;4989424;28;20046;-70
2023/03/15 09:23:20;;;;;;;3.03;0.40;;;;;;;2.67;67.08;99837.28;4987622;28;20046;-70
2023/03/15 09:25:47;;;;;;;0.32;0.10;;;;;;;2.70;66.80;99843.31;4985947;28;20061;-70
2023/03/15 09:28:14;;;;;;;1.80;0.10;;;;;;;2.73;66.79;99847.59;4990439;28;20439;-70
2023/03/15 09:30:42;;;;;;;2.65;0.15;;;;;;;2.75;66.88;99848.47;4987490;28;20061;-70
2023/03/15 09:33:13;;;;;;;0.25;0.10;;;;;;;2.78;66.37;99848.44;4986944;28;20062;-70
2023/03/15 09:35:41;;;;;;;0.57;0.10;;;;;;;3.00;65.78;99848.41;4987106;28;20050;-70
2023/03/15 09:38:10;;;;;;;0.43;0.10;;;;;;;3.18;64.83;99855.25;4989285;28;20051;-70
2023/03/15 09:40:40;;;;;;;0.98;0.10;;;;;;;3.05;65.22;99864.75;4986335;28;20043;-69
2023/03/15 09:43:25;;;;;;;0.17;0.10;;;;;;;3.16;65.11;99863.00;4986217;28;20068;-70
2023/03/15 09:46:06;;;;;;;0.77;0.10;;;;;;;3.24;65.07;99866.41;4986672;28;20055;-70
2023/03/15 09:48:38;;;;;;;0.82;0.10;;;;;;;3.36;64.90;99868.09;4984096;28;20038;-70
2023/03/15 09:51:08;;;;;;;0.50;0.10;;;;;;;3.48;64.81;99874.94;4986694;28;20053;-70
2023/03/15 09:53:41;;;;;;;0.75;0.10;;;;;;;3.52;64.99;99884.38;4989181;28;20081;-70
2023/03/15 09:56:21;;;;;;;2.20;0.10;;;;;;;3.48;65.21;99890.44;4982849;28;20050;-70
2023/03/15 09:58:51;;;;;;;1.67;0.10;;;;;;;3.47;64.52;99893.84;4986828;28;20046;-70
2023/03/15 10:01:18;;;;;;;0.20;0.10;;;;;;;3.48;64.25;99895.59;4986867;28;20073;-70
2023/03/15 10:03:49;;;;;;;0.68;0.10;;;;;;;3.49;63.89;99894.72;4986231;28;20050;-70
2023/03/15 10:06:19;;;;;;;0.73;0.10;;;;;;;3.48;63.93;99896.44;4986415;28;20046;-70
2023/03/15 10:08:47;;;;;;;0.60;0.10;;;;;;;3.53;63.63;99901.56;4986809;28;20075;-70
2023/03/15 10:11:21;;;;;;;0.73;0.10;;;;;;;3.55;63.79;99907.59;4987434;28;20057;-70
2023/03/15 10:14:16;;;;;;;0.20;0.10;;;;;;;3.56;63.34;99909.34;4986841;28;20050;-70
2023/03/15 10:16:46;;;;;;;0.30;0.10;;;;;;;3.54;62.87;99905.88;4977147;28;20383;-70
2023/03/15 10:19:25;;;;;;;0.35;0.10;;;;;;;3.54;63.03;99913.63;4985805;28;20046;-70
2023/03/15 10:21:59;;;;;;;2.55;0.40;;;;;;;3.57;62.59;99909.31;4986582;28;20081;-70
2023/03/15 10:24:37;;;;;;;0.57;0.10;;;;;;;3.58;62.74;99916.19;4985016;28;20050;-71
2023/03/15 10:27:15;;;;;;;1.00;0.10;;;;;;;3.59;62.77;99923.09;4981890;28;20073;-72
2023/03/15 10:29:44;;;;;;;0.43;0.10;;;;;;;3.57;62.85;99926.53;4987632;28;20077;-74
2023/03/15 10:32:17;;;;;;;1.50;0.00;;;;;;;3.59;62.47;99935.16;4985641;28;20050;-76
2023/03/15 10:34:47;;;;;;;0.30;0.00;;;;;;;3.58;62.34;99933.41;4986122;28;20050;-76
2023/03/15 10:37:14;;;;;;;1.35;0.10;;;;;;;3.59;62.71;99940.31;4989236;28;20050;-77
2023/03/15 10:39:46;;;;;;;0.30;0.10;;;;;;;3.59;62.41;99945.47;4987965;28;20050;-77
2023/03/15 10:42:25;;;;;;;0.22;0.13;;;;;;;3.59;62.37;99953.22;4987895;28;20165;-73
2023/03/15 10:44:52;;;;;;;1.55;0.00;;;;;;;3.59;62.04;99960.97;4989464;28;20054;-77
2023/03/15 10:47:20;;;;;;;2.10;0.10;;;;;;;3.56;61.92;99955.81;4983356;28;20499;-75
2023/03/15 10:49:48;;;;;;;0.45;0.03;;;;;;;3.57;61.45;99963.53;4985077;28;20042;-76
2023/03/15 10:52:37;;;;;;;1.55;0.10;;;;;;;3.58;61.26;99969.56;4987516;28;20049;-76
2023/03/15 10:55:14;;;;;;;0.63;0.10;;;;;;;3.54;61.53;99965.28;4985598;28;20042;-76
2023/03/15 10:57:50;;;;;;;0.95;0.10;;;;;;;3.51;61.02;99967.88;4988459;28;20053;-76
2023/03/15 11:00:25;;;;;;;0.93;0.20;;;;;;;3.54;60.94;99973.03;4987159;28;20049;-78
2023/03/15 11:03:02;;;;;;;1.30;0.10;;;;;;;3.55;61.34;99979.91;4986522;28;20120;-78
2023/03/15 11:05:32;;;;;;;0.57;0.08;;;;;;;3.53;61.22;99981.63;4983064;28;20533;-78
2023/03/15 11:08:00;;;;;;;1.08;0.08;;;;;;;3.53;60.77;99979.91;4989226;28;20101;-80
2023/03/15 11:10:34;;;;;;;0.13;0.00;;;;;;;3.53;60.44;99990.25;4991254;28;20046;-81
2023/03/15 11:13:12;;;;;;;3.58;0.10;;;;;;;3.52;60.93;99997.97;4988534;28;20061;-80
2023/03/15 11:15:40;;;;;;;0.22;0.08;;;;;;;3.41;60.35;99984.22;4989470;28;20162;-80
2023/03/15 11:18:06;;;;;;;3.22;0.10;;;;;;;3.50;60.87;99995.41;4986862;28;20077;-81
2023/03/15 11:20:37;;;;;;;0.90;0.10;;;;;;;3.52;60.58;100000.56;4987962;28;20418;-81
2023/03/15 11:23:15;;;;;;;1.77;0.10;;;;;;;3.52;60.47;100005.72;4991664;28;20050;-80
2023/03/15 11:25:43;;;;;;;1.60;0.10;;;;;;;3.51;60.06;100016.94;4989582;28;20050;-80
2023/03/15 11:28:17;;;;;;;0.20;0.10;;;;;;;3.50;59.70;100013.50;4987799;28;20050;-79
2023/03/15 11:30:47;;;;;;;0.30;0.00;;;;;;;3.47;59.28;100016.09;4982767;28;20403;-80
2023/03/15 11:33:32;;;;;;;1.00;0.05;;;;;;;3.48;59.22;100024.69;4983156;28;20061;-81
2023/03/15 11:36:01;;;;;;;1.45;0.10;;;;;;;3.46;59.46;100021.25;4986432;28;20054;-80
2023/03/15 11:38:35;;;;;;;0.85;0.00;;;;;;;3.45;59.07;100029.84;4988955;28;20057;-79
2023/03/15 11:41:16;;;;;;;1.17;0.00;;;;;;;3.44;59.26;100031.56;4985274;28;20054;-78
2023/03/15 11:43:52;;;;;;;0.90;0.03;;;;;;;3.43;58.72;100036.75;4985764;28;20043;-79